sensor_id;sensor_type;location;lat;lon;timestamp;P1;durP1;ratioP1;P2;durP2;ratioP2
45318;SDS011;31057;48.498;32.260;2023-03-16T00:01:22;63.50;;;43.40;;
45318;SDS011;31057;48.498;32.260;2023-03-16T00:03:24;67.22;;;46.25;;
45318;SDS011;31057;48.498;32.260;2023-03-16T01:11:57;59.30;;;39.63;;
45318;SDS011;31057;48.498;32.260;2023-03-16T01:13:59;62.50;;;43.92;;
45318;SDS011;31057;48.498;32.260;2023-03-16T01:16:02;66.40;;;44.30;;
45318;SDS011;31057;48.498;32.260;2023-03-16T01:18:04;68.65;;;43.60;;
45318;SDS011;31057;48.498;32.260;2023-03-16T01:22:12;65.28;;;43.22;;
45318;SDS011;31057;48.498;32.260;2023-03-16T01:24:14;71.57;;;46.78;;
45318;SDS011;31057;48.498;32.260;2023-03-16T01:26:16;79.65;;;45.08;;
45318;SDS011;31057;48.498;32.260;2023-03-16T01:28:19;73.15;;;46.20;;
45318;SDS011;31057;48.498;32.260;2023-03-16T01:30:25;61.03;;;43.15;;
45318;SDS011;31057;48.498;32.260;2023-03-16T01:32:28;66.32;;;44.65;;
45318;SDS011;31057;48.498;32.260;2023-03-16T01:34:31;65.70;;;42.75;;
45318;SDS011;31057;48.498;32.260;2023-03-16T01:36:34;60.22;;;39.10;;
45318;SDS011;31057;48.498;32.260;2023-03-16T01:38:36;64.78;;;42.42;;
45318;SDS011;31057;48.498;32.260;2023-03-16T01:42:41;64.27;;;39.93;;
45318;SDS011;31057;48.498;32.260;2023-03-16T01:44:53;65.22;;;43.30;;
45318;SDS011;31057;48.498;32.260;2023-03-16T01:46:57;63.28;;;43.13;;
45318;SDS011;31057;48.498;32.260;2023-03-16T01:51:30;73.03;;;45.85;;
45318;SDS011;31057;48.498;32.260;2023-03-16T01:53:46;61.13;;;41.92;;
45318;SDS011;31057;48.498;32.260;2023-03-16T01:55:53;58.35;;;41.45;;
45318;SDS011;31057;48.498;32.260;2023-03-16T01:57:55;65.85;;;44.58;;
45318;SDS011;31057;48.498;32.260;2023-03-16T02:00:05;61.72;;;42.60;;
45318;SDS011;31057;48.498;32.260;2023-03-16T02:02:20;61.22;;;40.45;;
45318;SDS011;31057;48.498;32.260;2023-03-16T02:06:49;55.95;;;37.38;;
45318;SDS011;31057;48.498;32.260;2023-03-16T02:08:54;56.88;;;40.42;;
45318;SDS011;31057;48.498;32.260;2023-03-16T02:10:58;62.03;;;40.83;;
45318;SDS011;31057;48.498;32.260;2023-03-16T02:13:00;65.70;;;42.92;;
45318;SDS011;31057;48.498;32.260;2023-03-16T02:15:02;56.97;;;41.70;;
45318;SDS011;31057;48.498;32.260;2023-03-16T02:17:05;57.60;;;40.28;;
45318;SDS011;31057;48.498;32.260;2023-03-16T02:19:08;60.75;;;39.53;;
45318;SDS011;31057;48.498;32.260;2023-03-16T02:21:34;54.42;;;37.28;;
45318;SDS011;31057;48.498;32.260;2023-03-16T02:23:49;55.25;;;38.08;;
45318;SDS011;31057;48.498;32.260;2023-03-16T02:30:36;67.95;;;41.45;;
45318;SDS011;31057;48.498;32.260;2023-03-16T02:32:39;57.22;;;40.63;;
45318;SDS011;31057;48.498;32.260;2023-03-16T02:34:41;62.95;;;41.47;;
45318;SDS011;31057;48.498;32.260;2023-03-16T02:36:44;64.80;;;41.17;;
45318;SDS011;31057;48.498;32.260;2023-03-16T02:38:48;62.03;;;40.85;;
45318;SDS011;31057;48.498;32.260;2023-03-16T02:40:54;63.00;;;41.78;;
45318;SDS011;31057;48.498;32.260;2023-03-16T02:43:08;57.22;;;37.60;;
45318;SDS011;31057;48.498;32.260;2023-03-16T02:45:13;59.78;;;39.05;;
45318;SDS011;31057;48.498;32.260;2023-03-16T02:51:51;58.45;;;40.33;;
45318;SDS011;31057;48.498;32.260;2023-03-16T02:53:53;63.88;;;40.78;;
45318;SDS011;31057;48.498;32.260;2023-03-16T02:55:55;59.92;;;39.67;;
45318;SDS011;31057;48.498;32.260;2023-03-16T02:57:57;58.67;;;39.00;;
45318;SDS011;31057;48.498;32.260;2023-03-16T02:59:59;73.97;;;41.53;;
45318;SDS011;31057;48.498;32.260;2023-03-16T03:02:01;60.42;;;40.42;;
45318;SDS011;31057;48.498;32.260;2023-03-16T03:04:04;62.50;;;40.17;;
45318;SDS011;31057;48.498;32.260;2023-03-16T03:06:06;62.78;;;40.55;;
45318;SDS011;31057;48.498;32.260;2023-03-16T03:08:08;52.90;;;37.95;;
45318;SDS011;31057;48.498;32.260;2023-03-16T03:10:11;57.10;;;39.30;;
45318;SDS011;31057;48.498;32.260;2023-03-16T03:12:12;59.42;;;39.13;;
45318;SDS011;31057;48.498;32.260;2023-03-16T03:16:17;61.85;;;39.13;;
45318;SDS011;31057;48.498;32.260;2023-03-16T03:18:19;64.38;;;40.55;;
45318;SDS011;31057;48.498;32.260;2023-03-16T03:20:20;60.75;;;39.25;;
45318;SDS011;31057;48.498;32.260;2023-03-16T03:22:22;57.78;;;39.60;;
45318;SDS011;31057;48.498;32.260;2023-03-16T03:24:26;53.85;;;39.00;;
45318;SDS011;31057;48.498;32.260;2023-03-16T03:26:28;58.55;;;36.58;;
45318;SDS011;31057;48.498;32.260;2023-03-16T03:28:30;57.97;;;38.22;;
45318;SDS011;31057;48.498;32.260;2023-03-16T03:30:34;59.50;;;38.78;;
45318;SDS011;31057;48.498;32.260;2023-03-16T03:34:38;60.08;;;39.85;;
45318;SDS011;31057;48.498;32.260;2023-03-16T03:36:40;56.78;;;39.03;;
45318;SDS011;31057;48.498;32.260;2023-03-16T03:40:44;58.78;;;37.92;;
45318;SDS011;31057;48.498;32.260;2023-03-16T03:42:48;67.97;;;43.78;;
45318;SDS011;31057;48.498;32.260;2023-03-16T03:44:51;67.80;;;44.20;;
45318;SDS011;31057;48.498;32.260;2023-03-16T03:46:54;70.00;;;47.00;;
45318;SDS011;31057;48.498;32.260;2023-03-16T03:48:55;73.22;;;44.45;;
45318;SDS011;31057;48.498;32.260;2023-03-16T03:51:02;69.32;;;48.88;;
45318;SDS011;31057;48.498;32.260;2023-03-16T03:53:05;61.92;;;42.15;;
45318;SDS011;31057;48.498;32.260;2023-03-16T03:55:08;67.15;;;45.65;;
45318;SDS011;31057;48.498;32.260;2023-03-16T03:57:10;63.53;;;42.97;;
45318;SDS011;31057;48.498;32.260;2023-03-16T03:59:12;61.63;;;41.53;;
45318;SDS011;31057;48.498;32.260;2023-03-16T04:01:14;58.72;;;41.55;;
45318;SDS011;31057;48.498;32.260;2023-03-16T04:03:17;69.93;;;44.20;;
45318;SDS011;31057;48.498;32.260;2023-03-16T04:05:19;61.53;;;41.63;;
45318;SDS011;31057;48.498;32.260;2023-03-16T04:09:23;58.20;;;40.25;;
45318;SDS011;31057;48.498;32.260;2023-03-16T04:11:24;67.25;;;45.33;;
45318;SDS011;31057;48.498;32.260;2023-03-16T04:13:26;56.90;;;41.35;;
45318;SDS011;31057;48.498;32.260;2023-03-16T04:15:28;60.85;;;42.92;;
45318;SDS011;31057;48.498;32.260;2023-03-16T04:17:33;68.45;;;41.40;;
45318;SDS011;31057;48.498;32.260;2023-03-16T04:19:35;58.45;;;41.55;;
45318;SDS011;31057;48.498;32.260;2023-03-16T04:21:37;55.10;;;38.55;;
45318;SDS011;31057;48.498;32.260;2023-03-16T04:23:38;56.42;;;38.20;;
45318;SDS011;31057;48.498;32.260;2023-03-16T04:25:40;65.10;;;42.47;;
45318;SDS011;31057;48.498;32.260;2023-03-16T04:27:43;60.08;;;39.67;;
45318;SDS011;31057;48.498;32.260;2023-03-16T04:29:47;65.03;;;41.38;;
45318;SDS011;31057;48.498;32.260;2023-03-16T04:31:48;62.45;;;41.58;;
45318;SDS011;31057;48.498;32.260;2023-03-16T04:33:51;64.28;;;41.00;;
45318;SDS011;31057;48.498;32.260;2023-03-16T04:35:56;61.10;;;39.78;;
45318;SDS011;31057;48.498;32.260;2023-03-16T04:37:58;62.80;;;41.45;;
45318;SDS011;31057;48.498;32.260;2023-03-16T04:40:03;59.92;;;39.15;;
45318;SDS011;31057;48.498;32.260;2023-03-16T04:42:11;59.58;;;38.42;;
45318;SDS011;31057;48.498;32.260;2023-03-16T04:44:13;61.42;;;39.80;;
45318;SDS011;31057;48.498;32.260;2023-03-16T04:46:15;61.45;;;39.45;;
45318;SDS011;31057;48.498;32.260;2023-03-16T04:50:19;61.03;;;37.10;;
45318;SDS011;31057;48.498;32.260;2023-03-16T04:52:21;62.15;;;40.88;;
45318;SDS011;31057;48.498;32.260;2023-03-16T04:54:23;64.32;;;43.67;;
45318;SDS011;31057;48.498;32.260;2023-03-16T04:56:24;61.22;;;39.08;;
45318;SDS011;31057;48.498;32.260;2023-03-16T04:58:26;53.28;;;38.78;;
45318;SDS011;31057;48.498;32.260;2023-03-16T05:00:28;69.10;;;44.90;;
45318;SDS011;31057;48.498;32.260;2023-03-16T05:02:31;60.25;;;41.50;;
45318;SDS011;31057;48.498;32.260;2023-03-16T05:04:32;60.90;;;42.10;;
45318;SDS011;31057;48.498;32.260;2023-03-16T05:06:34;60.33;;;38.65;;
45318;SDS011;31057;48.498;32.260;2023-03-16T05:08:36;61.70;;;41.78;;
45318;SDS011;31057;48.498;32.260;2023-03-16T05:12:40;55.17;;;35.27;;
45318;SDS011;31057;48.498;32.260;2023-03-16T05:16:44;50.97;;;34.67;;
45318;SDS011;31057;48.498;32.260;2023-03-16T05:18:46;47.97;;;31.50;;
45318;SDS011;31057;48.498;32.260;2023-03-16T05:20:48;61.15;;;34.05;;
45318;SDS011;31057;48.498;32.260;2023-03-16T05:22:53;51.92;;;35.85;;
45318;SDS011;31057;48.498;32.260;2023-03-16T05:24:55;57.35;;;33.95;;
45318;SDS011;31057;48.498;32.260;2023-03-16T05:26:57;54.97;;;35.42;;
45318;SDS011;31057;48.498;32.260;2023-03-16T05:28:59;50.58;;;35.97;;
45318;SDS011;31057;48.498;32.260;2023-03-16T05:31:02;55.13;;;35.30;;
45318;SDS011;31057;48.498;32.260;2023-03-16T05:35:06;48.88;;;30.85;;
45318;SDS011;31057;48.498;32.260;2023-03-16T05:37:11;50.65;;;31.38;;
45318;SDS011;31057;48.498;32.260;2023-03-16T05:39:13;44.80;;;32.00;;
45318;SDS011;31057;48.498;32.260;2023-03-16T05:43:19;48.50;;;30.52;;
45318;SDS011;31057;48.498;32.260;2023-03-16T05:45:22;50.85;;;31.80;;
45318;SDS011;31057;48.498;32.260;2023-03-16T05:47:24;52.40;;;32.92;;
45318;SDS011;31057;48.498;32.260;2023-03-16T05:49:26;60.50;;;34.53;;
45318;SDS011;31057;48.498;32.260;2023-03-16T05:51:28;50.10;;;31.17;;
45318;SDS011;31057;48.498;32.260;2023-03-16T05:53:31;51.85;;;30.98;;
45318;SDS011;31057;48.498;32.260;2023-03-16T05:55:33;69.18;;;35.83;;
45318;SDS011;31057;48.498;32.260;2023-03-16T05:57:35;64.53;;;31.65;;
45318;SDS011;31057;48.498;32.260;2023-03-16T05:59:37;47.88;;;30.50;;
45318;SDS011;31057;48.498;32.260;2023-03-16T06:01:39;59.13;;;34.20;;
45318;SDS011;31057;48.498;32.260;2023-03-16T06:03:41;49.13;;;32.25;;
45318;SDS011;31057;48.498;32.260;2023-03-16T06:05:43;55.17;;;34.25;;
45318;SDS011;31057;48.498;32.260;2023-03-16T06:07:45;59.25;;;34.17;;
45318;SDS011;31057;48.498;32.260;2023-03-16T06:11:49;61.23;;;35.80;;
45318;SDS011;31057;48.498;32.260;2023-03-16T06:13:50;62.17;;;35.72;;
45318;SDS011;31057;48.498;32.260;2023-03-16T06:15:52;60.33;;;35.88;;
45318;SDS011;31057;48.498;32.260;2023-03-16T06:19:57;56.22;;;31.08;;
45318;SDS011;31057;48.498;32.260;2023-03-16T06:21:59;59.67;;;34.25;;
45318;SDS011;31057;48.498;32.260;2023-03-16T06:26:03;53.97;;;32.15;;
45318;SDS011;31057;48.498;32.260;2023-03-16T06:30:09;60.58;;;31.80;;
45318;SDS011;31057;48.498;32.260;2023-03-16T06:32:12;52.63;;;30.95;;
45318;SDS011;31057;48.498;32.260;2023-03-16T06:34:15;58.17;;;34.63;;
45318;SDS011;31057;48.498;32.260;2023-03-16T06:36:17;45.40;;;29.50;;
45318;SDS011;31057;48.498;32.260;2023-03-16T06:38:19;49.15;;;31.52;;
45318;SDS011;31057;48.498;32.260;2023-03-16T06:40:21;44.00;;;28.17;;
45318;SDS011;31057;48.498;32.260;2023-03-16T06:42:23;43.53;;;28.00;;
45318;SDS011;31057;48.498;32.260;2023-03-16T06:46:28;41.45;;;28.17;;
45318;SDS011;31057;48.498;32.260;2023-03-16T06:48:30;59.00;;;31.17;;
45318;SDS011;31057;48.498;32.260;2023-03-16T06:50:31;41.30;;;27.23;;
45318;SDS011;31057;48.498;32.260;2023-03-16T06:52:33;46.30;;;27.77;;
45318;SDS011;31057;48.498;32.260;2023-03-16T06:54:35;48.80;;;29.17;;
45318;SDS011;31057;48.498;32.260;2023-03-16T06:58:39;46.40;;;28.63;;
45318;SDS011;31057;48.498;32.260;2023-03-16T07:00:42;39.25;;;25.48;;
45318;SDS011;31057;48.498;32.260;2023-03-16T07:02:43;37.90;;;24.92;;
45318;SDS011;31057;48.498;32.260;2023-03-16T07:04:45;34.85;;;23.90;;
45318;SDS011;31057;48.498;32.260;2023-03-16T07:06:48;45.22;;;25.60;;
45318;SDS011;31057;48.498;32.260;2023-03-16T07:08:50;32.22;;;23.10;;
45318;SDS011;31057;48.498;32.260;2023-03-16T07:10:51;36.65;;;26.02;;
45318;SDS011;31057;48.498;32.260;2023-03-16T07:12:54;36.45;;;24.35;;
45318;SDS011;31057;48.498;32.260;2023-03-16T07:14:56;27.88;;;21.13;;
45318;SDS011;31057;48.498;32.260;2023-03-16T07:16:58;35.40;;;22.90;;
45318;SDS011;31057;48.498;32.260;2023-03-16T07:19:02;38.45;;;24.17;;
45318;SDS011;31057;48.498;32.260;2023-03-16T07:21:04;40.13;;;23.83;;
45318;SDS011;31057;48.498;32.260;2023-03-16T07:23:06;35.85;;;24.65;;
45318;SDS011;31057;48.498;32.260;2023-03-16T07:25:08;29.55;;;22.13;;
45318;SDS011;31057;48.498;32.260;2023-03-16T07:27:11;31.35;;;23.65;;
45318;SDS011;31057;48.498;32.260;2023-03-16T07:29:13;35.63;;;22.83;;
45318;SDS011;31057;48.498;32.260;2023-03-16T07:31:17;39.42;;;21.77;;
45318;SDS011;31057;48.498;32.260;2023-03-16T07:33:19;25.48;;;18.15;;
45318;SDS011;31057;48.498;32.260;2023-03-16T07:35:21;32.70;;;20.67;;
45318;SDS011;31057;48.498;32.260;2023-03-16T07:37:24;24.20;;;19.45;;
45318;SDS011;31057;48.498;32.260;2023-03-16T07:39:26;34.15;;;19.45;;
45318;SDS011;31057;48.498;32.260;2023-03-16T07:41:28;26.35;;;20.13;;
45318;SDS011;31057;48.498;32.260;2023-03-16T07:43:32;35.38;;;23.10;;
45318;SDS011;31057;48.498;32.260;2023-03-16T07:47:36;21.20;;;18.00;;
45318;SDS011;31057;48.498;32.260;2023-03-16T07:49:38;20.85;;;15.27;;
45318;SDS011;31057;48.498;32.260;2023-03-16T07:51:41;23.52;;;16.63;;
45318;SDS011;31057;48.498;32.260;2023-03-16T07:53:43;19.25;;;13.85;;
45318;SDS011;31057;48.498;32.260;2023-03-16T07:55:45;18.40;;;14.75;;
45318;SDS011;31057;48.498;32.260;2023-03-16T07:57:47;20.33;;;13.80;;
45318;SDS011;31057;48.498;32.260;2023-03-16T07:59:49;24.77;;;14.05;;
45318;SDS011;31057;48.498;32.260;2023-03-16T08:01:51;15.90;;;13.15;;
45318;SDS011;31057;48.498;32.260;2023-03-16T08:03:54;15.85;;;12.20;;
45318;SDS011;31057;48.498;32.260;2023-03-16T08:07:58;21.00;;;11.80;;
45318;SDS011;31057;48.498;32.260;2023-03-16T08:10:01;18.25;;;12.05;;
45318;SDS011;31057;48.498;32.260;2023-03-16T08:12:04;19.10;;;12.90;;
45318;SDS011;31057;48.498;32.260;2023-03-16T08:14:07;22.05;;;13.30;;
45318;SDS011;31057;48.498;32.260;2023-03-16T08:16:09;17.92;;;13.55;;
45318;SDS011;31057;48.498;32.260;2023-03-16T08:18:13;20.23;;;14.27;;
45318;SDS011;31057;48.498;32.260;2023-03-16T08:22:19;18.45;;;11.80;;
45318;SDS011;31057;48.498;32.260;2023-03-16T08:24:21;15.48;;;12.23;;
45318;SDS011;31057;48.498;32.260;2023-03-16T08:26:23;18.23;;;13.70;;
45318;SDS011;31057;48.498;32.260;2023-03-16T08:28:26;16.90;;;12.48;;
45318;SDS011;31057;48.498;32.260;2023-03-16T08:30:29;23.65;;;13.52;;
45318;SDS011;31057;48.498;32.260;2023-03-16T08:32:31;16.27;;;12.80;;
45318;SDS011;31057;48.498;32.260;2023-03-16T08:34:34;17.77;;;12.27;;
45318;SDS011;31057;48.498;32.260;2023-03-16T08:36:36;20.83;;;14.25;;
45318;SDS011;31057;48.498;32.260;2023-03-16T08:38:39;13.55;;;10.68;;
45318;SDS011;31057;48.498;32.260;2023-03-16T08:40:41;15.75;;;10.80;;
45318;SDS011;31057;48.498;32.260;2023-03-16T08:42:48;16.85;;;10.63;;
45318;SDS011;31057;48.498;32.260;2023-03-16T08:44:51;14.55;;;10.70;;
45318;SDS011;31057;48.498;32.260;2023-03-16T08:46:55;11.07;;;8.05;;
45318;SDS011;31057;48.498;32.260;2023-03-16T08:48:57;11.75;;;8.73;;
45318;SDS011;31057;48.498;32.260;2023-03-16T08:51:02;14.10;;;11.10;;
45318;SDS011;31057;48.498;32.260;2023-03-16T08:53:06;16.80;;;11.65;;
45318;SDS011;31057;48.498;32.260;2023-03-16T08:55:08;18.15;;;12.70;;
45318;SDS011;31057;48.498;32.260;2023-03-16T08:57:11;23.55;;;15.07;;
45318;SDS011;31057;48.498;32.260;2023-03-16T08:59:13;25.75;;;15.85;;
45318;SDS011;31057;48.498;32.260;2023-03-16T09:01:29;23.55;;;18.15;;
45318;SDS011;31057;48.498;32.260;2023-03-16T09:03:32;23.42;;;15.68;;
45318;SDS011;31057;48.498;32.260;2023-03-16T09:05:35;19.85;;;14.82;;
45318;SDS011;31057;48.498;32.260;2023-03-16T09:07:37;19.65;;;14.48;;
45318;SDS011;31057;48.498;32.260;2023-03-16T09:09:39;19.65;;;15.20;;
45318;SDS011;31057;48.498;32.260;2023-03-16T09:11:41;20.67;;;14.60;;
45318;SDS011;31057;48.498;32.260;2023-03-16T09:13:44;24.35;;;14.32;;
45318;SDS011;31057;48.498;32.260;2023-03-16T09:15:46;20.35;;;13.93;;
45318;SDS011;31057;48.498;32.260;2023-03-16T09:17:48;19.88;;;13.80;;
45318;SDS011;31057;48.498;32.260;2023-03-16T09:19:50;20.65;;;13.68;;
45318;SDS011;31057;48.498;32.260;2023-03-16T09:21:57;22.25;;;13.07;;
45318;SDS011;31057;48.498;32.260;2023-03-16T09:23:59;21.38;;;13.77;;
45318;SDS011;31057;48.498;32.260;2023-03-16T09:26:01;16.75;;;12.88;;
45318;SDS011;31057;48.498;32.260;2023-03-16T09:28:05;23.50;;;13.77;;
45318;SDS011;31057;48.498;32.260;2023-03-16T09:30:08;20.98;;;14.88;;
45318;SDS011;31057;48.498;32.260;2023-03-16T09:32:11;22.77;;;14.35;;
45318;SDS011;31057;48.498;32.260;2023-03-16T09:34:14;35.88;;;21.67;;
45318;SDS011;31057;48.498;32.260;2023-03-16T09:38:18;17.13;;;12.05;;
45318;SDS011;31057;48.498;32.260;2023-03-16T09:40:22;20.35;;;12.75;;
45318;SDS011;31057;48.498;32.260;2023-03-16T09:42:35;20.80;;;13.65;;
45318;SDS011;31057;48.498;32.260;2023-03-16T09:46:58;16.50;;;13.05;;
45318;SDS011;31057;48.498;32.260;2023-03-16T09:49:03;46.20;;;25.25;;
45318;SDS011;31057;48.498;32.260;2023-03-16T09:51:31;37.60;;;20.45;;
45318;SDS011;31057;48.498;32.260;2023-03-16T09:53:46;25.23;;;17.52;;
45318;SDS011;31057;48.498;32.260;2023-03-16T09:55:57;23.63;;;15.30;;
45318;SDS011;31057;48.498;32.260;2023-03-16T09:58:19;23.95;;;15.00;;
45318;SDS011;31057;48.498;32.260;2023-03-16T10:00:29;39.55;;;18.70;;
45318;SDS011;31057;48.498;32.260;2023-03-16T10:02:43;14.98;;;11.23;;
45318;SDS011;31057;48.498;32.260;2023-03-16T10:05:16;17.27;;;13.13;;
45318;SDS011;31057;48.498;32.260;2023-03-16T10:07:30;20.50;;;14.05;;
45318;SDS011;31057;48.498;32.260;2023-03-16T10:09:58;19.00;;;12.90;;
45318;SDS011;31057;48.498;32.260;2023-03-16T10:12:15;22.63;;;13.88;;
45318;SDS011;31057;48.498;32.260;2023-03-16T10:16:39;11.75;;;7.72;;
45318;SDS011;31057;48.498;32.260;2023-03-16T10:18:52;10.65;;;8.30;;
45318;SDS011;31057;48.498;32.260;2023-03-16T10:21:02;13.48;;;9.88;;
45318;SDS011;31057;48.498;32.260;2023-03-16T10:23:16;11.85;;;9.02;;
45318;SDS011;31057;48.498;32.260;2023-03-16T10:25:26;13.45;;;8.80;;
45318;SDS011;31057;48.498;32.260;2023-03-16T10:27:46;14.48;;;10.88;;
45318;SDS011;31057;48.498;32.260;2023-03-16T10:29:49;13.43;;;8.73;;
45318;SDS011;31057;48.498;32.260;2023-03-16T10:31:50;17.45;;;12.38;;
45318;SDS011;31057;48.498;32.260;2023-03-16T10:33:57;16.77;;;11.07;;
45318;SDS011;31057;48.498;32.260;2023-03-16T10:40:50;11.98;;;8.90;;
45318;SDS011;31057;48.498;32.260;2023-03-16T10:42:53;12.20;;;8.55;;
45318;SDS011;31057;48.498;32.260;2023-03-16T10:49:02;11.27;;;7.93;;
45318;SDS011;31057;48.498;32.260;2023-03-16T10:51:07;12.55;;;8.30;;
45318;SDS011;31057;48.498;32.260;2023-03-16T10:53:14;10.35;;;7.50;;
45318;SDS011;31057;48.498;32.260;2023-03-16T10:55:22;10.65;;;8.43;;
45318;SDS011;31057;48.498;32.260;2023-03-16T10:57:35;12.27;;;7.15;;
45318;SDS011;31057;48.498;32.260;2023-03-16T10:59:38;8.75;;;7.00;;
45318;SDS011;31057;48.498;32.260;2023-03-16T11:01:42;8.30;;;7.00;;
45318;SDS011;31057;48.498;32.260;2023-03-16T11:03:48;9.85;;;7.20;;
45318;SDS011;31057;48.498;32.260;2023-03-16T11:05:55;12.80;;;8.57;;
45318;SDS011;31057;48.498;32.260;2023-03-16T11:10:23;11.60;;;8.02;;
45318;SDS011;31057;48.498;32.260;2023-03-16T11:12:46;10.77;;;8.48;;
45318;SDS011;31057;48.498;32.260;2023-03-16T11:14:48;9.27;;;7.30;;
45318;SDS011;31057;48.498;32.260;2023-03-16T11:16:53;14.27;;;10.52;;
45318;SDS011;31057;48.498;32.260;2023-03-16T11:19:04;13.75;;;9.15;;
45318;SDS011;31057;48.498;32.260;2023-03-16T11:23:31;13.85;;;8.43;;
45318;SDS011;31057;48.498;32.260;2023-03-16T11:25:38;24.50;;;11.75;;
45318;SDS011;31057;48.498;32.260;2023-03-16T11:27:55;20.63;;;11.68;;
45318;SDS011;31057;48.498;32.260;2023-03-16T11:30:23;19.17;;;12.25;;
45318;SDS011;31057;48.498;32.260;2023-03-16T11:32:32;13.75;;;9.48;;
45318;SDS011;31057;48.498;32.260;2023-03-16T11:34:37;17.48;;;10.52;;
45318;SDS011;31057;48.498;32.260;2023-03-16T11:36:46;16.42;;;10.90;;
45318;SDS011;31057;48.498;32.260;2023-03-16T11:41:43;15.05;;;10.80;;
45318;SDS011;31057;48.498;32.260;2023-03-16T11:49:06;17.27;;;9.70;;
45318;SDS011;31057;48.498;32.260;2023-03-16T12:00:43;18.25;;;11.27;;
45318;SDS011;31057;48.498;32.260;2023-03-16T12:14:48;10.85;;;8.57;;
45318;SDS011;31057;48.498;32.260;2023-03-16T12:17:08;16.13;;;9.40;;
45318;SDS011;31057;48.498;32.260;2023-03-16T12:19:22;10.13;;;8.93;;
45318;SDS011;31057;48.498;32.260;2023-03-16T12:21:41;14.65;;;8.93;;
45318;SDS011;31057;48.498;32.260;2023-03-16T12:23:50;15.10;;;11.07;;
45318;SDS011;31057;48.498;32.260;2023-03-16T12:26:00;10.38;;;8.15;;
45318;SDS011;31057;48.498;32.260;2023-03-16T12:28:05;11.13;;;7.57;;
45318;SDS011;31057;48.498;32.260;2023-03-16T12:30:30;12.95;;;8.18;;
45318;SDS011;31057;48.498;32.260;2023-03-16T12:33:00;10.77;;;8.27;;
45318;SDS011;31057;48.498;32.260;2023-03-16T12:35:45;8.65;;;7.63;;
45318;SDS011;31057;48.498;32.260;2023-03-16T12:38:12;12.55;;;9.07;;
45318;SDS011;31057;48.498;32.260;2023-03-16T12:40:29;11.32;;;8.68;;
45318;SDS011;31057;48.498;32.260;2023-03-16T12:45:02;9.82;;;7.95;;
45318;SDS011;31057;48.498;32.260;2023-03-16T12:47:17;13.95;;;8.57;;
45318;SDS011;31057;48.498;32.260;2023-03-16T12:49:22;9.45;;;7.82;;
45318;SDS011;31057;48.498;32.260;2023-03-16T12:51:33;8.68;;;6.95;;
45318;SDS011;31057;48.498;32.260;2023-03-16T12:53:44;9.73;;;7.60;;
45318;SDS011;31057;48.498;32.260;2023-03-16T12:55:54;13.07;;;9.57;;
45318;SDS011;31057;48.498;32.260;2023-03-16T12:57:59;13.90;;;9.02;;
45318;SDS011;31057;48.498;32.260;2023-03-16T13:00:03;15.57;;;9.63;;
45318;SDS011;31057;48.498;32.260;2023-03-16T13:02:31;15.30;;;9.45;;
45318;SDS011;31057;48.498;32.260;2023-03-16T13:04:33;11.30;;;9.30;;
45318;SDS011;31057;48.498;32.260;2023-03-16T13:06:42;16.02;;;9.45;;
45318;SDS011;31057;48.498;32.260;2023-03-16T13:08:47;15.43;;;10.55;;
45318;SDS011;31057;48.498;32.260;2023-03-16T13:11:02;14.98;;;10.82;;
45318;SDS011;31057;48.498;32.260;2023-03-16T13:13:10;23.63;;;13.45;;
45318;SDS011;31057;48.498;32.260;2023-03-16T13:17:32;21.15;;;14.32;;
45318;SDS011;31057;48.498;32.260;2023-03-16T13:19:34;17.17;;;12.98;;
45318;SDS011;31057;48.498;32.260;2023-03-16T13:21:39;15.38;;;13.57;;
45318;SDS011;31057;48.498;32.260;2023-03-16T13:26:09;13.40;;;11.45;;
45318;SDS011;31057;48.498;32.260;2023-03-16T13:28:18;19.98;;;14.90;;
45318;SDS011;31057;48.498;32.260;2023-03-16T13:30:27;25.98;;;16.00;;
45318;SDS011;31057;48.498;32.260;2023-03-16T13:32:32;20.58;;;13.65;;
45318;SDS011;31057;48.498;32.260;2023-03-16T13:34:36;17.60;;;14.70;;
45318;SDS011;31057;48.498;32.260;2023-03-16T13:36:45;25.90;;;17.13;;
45318;SDS011;31057;48.498;32.260;2023-03-16T13:41:09;22.08;;;14.77;;
45318;SDS011;31057;48.498;32.260;2023-03-16T13:43:14;19.38;;;15.05;;
45318;SDS011;31057;48.498;32.260;2023-03-16T13:45:19;17.90;;;14.68;;
45318;SDS011;31057;48.498;32.260;2023-03-16T13:47:33;18.80;;;13.43;;
45318;SDS011;31057;48.498;32.260;2023-03-16T13:49:42;17.85;;;12.40;;
45318;SDS011;31057;48.498;32.260;2023-03-16T13:51:45;22.85;;;14.90;;
45318;SDS011;31057;48.498;32.260;2023-03-16T13:53:48;25.00;;;17.45;;
45318;SDS011;31057;48.498;32.260;2023-03-16T13:55:51;22.95;;;15.77;;
45318;SDS011;31057;48.498;32.260;2023-03-16T13:57:54;24.02;;;14.88;;
45318;SDS011;31057;48.498;32.260;2023-03-16T14:02:15;25.90;;;15.23;;
45318;SDS011;31057;48.498;32.260;2023-03-16T14:04:18;21.67;;;15.23;;
45318;SDS011;31057;48.498;32.260;2023-03-16T14:06:30;33.53;;;19.13;;
45318;SDS011;31057;48.498;32.260;2023-03-16T14:08:34;29.45;;;19.92;;
45318;SDS011;31057;48.498;32.260;2023-03-16T14:10:36;21.73;;;11.63;;
45318;SDS011;31057;48.498;32.260;2023-03-16T14:12:38;21.00;;;13.40;;
45318;SDS011;31057;48.498;32.260;2023-03-16T14:14:53;15.38;;;11.88;;
45318;SDS011;31057;48.498;32.260;2023-03-16T14:17:00;22.33;;;14.07;;
45318;SDS011;31057;48.498;32.260;2023-03-16T14:19:21;26.38;;;14.50;;
45318;SDS011;31057;48.498;32.260;2023-03-16T14:21:32;48.58;;;27.65;;
45318;SDS011;31057;48.498;32.260;2023-03-16T14:23:45;57.95;;;33.45;;
45318;SDS011;31057;48.498;32.260;2023-03-16T14:25:55;46.92;;;27.88;;
45318;SDS011;31057;48.498;32.260;2023-03-16T14:27:58;36.17;;;22.98;;
45318;SDS011;31057;48.498;32.260;2023-03-16T14:30:13;41.35;;;25.05;;
45318;SDS011;31057;48.498;32.260;2023-03-16T14:32:23;49.55;;;30.55;;
45318;SDS011;31057;48.498;32.260;2023-03-16T14:36:36;66.57;;;33.65;;
45318;SDS011;31057;48.498;32.260;2023-03-16T14:38:40;58.17;;;32.78;;
45318;SDS011;31057;48.498;32.260;2023-03-16T14:40:54;55.42;;;33.20;;
45318;SDS011;31057;48.498;32.260;2023-03-16T14:42:58;45.88;;;29.58;;
45318;SDS011;31057;48.498;32.260;2023-03-16T14:45:08;41.13;;;29.25;;
45318;SDS011;31057;48.498;32.260;2023-03-16T14:47:24;37.00;;;25.15;;
45318;SDS011;31057;48.498;32.260;2023-03-16T14:49:32;30.80;;;21.02;;
45318;SDS011;31057;48.498;32.260;2023-03-16T14:51:39;37.85;;;23.75;;
45318;SDS011;31057;48.498;32.260;2023-03-16T14:53:42;48.17;;;27.15;;
45318;SDS011;31057;48.498;32.260;2023-03-16T14:55:45;42.30;;;27.23;;
45318;SDS011;31057;48.498;32.260;2023-03-16T14:57:47;32.35;;;21.30;;
45318;SDS011;31057;48.498;32.260;2023-03-16T14:59:51;30.63;;;21.13;;
45318;SDS011;31057;48.498;32.260;2023-03-16T15:01:54;38.72;;;22.70;;
45318;SDS011;31057;48.498;32.260;2023-03-16T15:03:56;37.65;;;23.40;;
45318;SDS011;31057;48.498;32.260;2023-03-16T15:10:11;30.42;;;21.80;;
45318;SDS011;31057;48.498;32.260;2023-03-16T15:12:22;34.45;;;21.88;;
45318;SDS011;31057;48.498;32.260;2023-03-16T15:14:28;34.05;;;23.13;;